sensor_id;sensor_type;location;lat;lon;timestamp;P1;durP1;ratioP1;P2;durP2;ratioP2
51686;SDS011;37774;52.192;4.584;2023-03-21T00:02:20;25.02;;;9.15;;
51686;SDS011;37774;52.192;4.584;2023-03-21T00:04:48;27.80;;;12.65;;
51686;SDS011;37774;52.192;4.584;2023-03-21T00:07:15;27.00;;;10.90;;
51686;SDS011;37774;52.192;4.584;2023-03-21T00:09:42;29.52;;;11.68;;
51686;SDS011;37774;52.192;4.584;2023-03-21T00:12:10;23.95;;;12.13;;
51686;SDS011;37774;52.192;4.584;2023-03-21T00:14:38;31.70;;;11.85;;
51686;SDS011;37774;52.192;4.584;2023-03-21T00:17:05;27.75;;;12.35;;
51686;SDS011;37774;52.192;4.584;2023-03-21T00:19:32;45.25;;;13.90;;
51686;SDS011;37774;52.192;4.584;2023-03-21T00:22:02;27.15;;;12.52;;
51686;SDS011;37774;52.192;4.584;2023-03-21T00:24:30;35.53;;;13.43;;
51686;SDS011;37774;52.192;4.584;2023-03-21T00:26:56;27.30;;;13.30;;
51686;SDS011;37774;52.192;4.584;2023-03-21T00:29:24;34.20;;;14.30;;
51686;SDS011;37774;52.192;4.584;2023-03-21T00:31:51;33.50;;;13.60;;
51686;SDS011;37774;52.192;4.584;2023-03-21T00:34:18;38.45;;;14.35;;
51686;SDS011;37774;52.192;4.584;2023-03-21T00:36:45;33.47;;;13.93;;
51686;SDS011;37774;52.192;4.584;2023-03-21T00:39:12;36.55;;;14.82;;
51686;SDS011;37774;52.192;4.584;2023-03-21T00:41:39;27.75;;;13.45;;
51686;SDS011;37774;52.192;4.584;2023-03-21T00:44:06;33.22;;;15.90;;
51686;SDS011;37774;52.192;4.584;2023-03-21T00:46:34;36.13;;;13.63;;
51686;SDS011;37774;52.192;4.584;2023-03-21T00:49:01;44.50;;;15.30;;
51686;SDS011;37774;52.192;4.584;2023-03-21T00:51:28;40.20;;;16.42;;
51686;SDS011;37774;52.192;4.584;2023-03-21T00:53:57;33.30;;;14.25;;
51686;SDS011;37774;52.192;4.584;2023-03-21T00:56:24;41.38;;;14.80;;
51686;SDS011;37774;52.192;4.584;2023-03-21T00:58:51;32.97;;;15.50;;
51686;SDS011;37774;52.192;4.584;2023-03-21T01:01:18;33.67;;;14.45;;
51686;SDS011;37774;52.192;4.584;2023-03-21T01:03:46;34.92;;;13.52;;
51686;SDS011;37774;52.192;4.584;2023-03-21T01:06:15;42.88;;;15.50;;
51686;SDS011;37774;52.192;4.584;2023-03-21T01:08:47;32.72;;;14.35;;
51686;SDS011;37774;52.192;4.584;2023-03-21T01:11:14;39.30;;;16.08;;
51686;SDS011;37774;52.192;4.584;2023-03-21T01:13:44;28.50;;;13.10;;
51686;SDS011;37774;52.192;4.584;2023-03-21T01:16:11;35.60;;;14.85;;
51686;SDS011;37774;52.192;4.584;2023-03-21T01:18:38;30.55;;;12.90;;
51686;SDS011;37774;52.192;4.584;2023-03-21T01:21:09;30.38;;;14.13;;
51686;SDS011;37774;52.192;4.584;2023-03-21T01:23:38;30.02;;;13.20;;
51686;SDS011;37774;52.192;4.584;2023-03-21T01:26:06;28.80;;;12.57;;
51686;SDS011;37774;52.192;4.584;2023-03-21T01:28:33;26.85;;;12.98;;
51686;SDS011;37774;52.192;4.584;2023-03-21T01:31:01;33.42;;;14.45;;
51686;SDS011;37774;52.192;4.584;2023-03-21T01:33:29;34.83;;;14.07;;
51686;SDS011;37774;52.192;4.584;2023-03-21T01:35:57;37.20;;;15.48;;
51686;SDS011;37774;52.192;4.584;2023-03-21T01:38:25;29.90;;;13.00;;
51686;SDS011;37774;52.192;4.584;2023-03-21T01:40:53;34.13;;;14.98;;
51686;SDS011;37774;52.192;4.584;2023-03-21T01:43:22;43.15;;;15.38;;
51686;SDS011;37774;52.192;4.584;2023-03-21T01:48:46;42.90;;;14.68;;
51686;SDS011;37774;52.192;4.584;2023-03-21T01:51:15;32.13;;;14.10;;
51686;SDS011;37774;52.192;4.584;2023-03-21T01:53:44;44.08;;;15.48;;
51686;SDS011;37774;52.192;4.584;2023-03-21T01:56:13;36.97;;;14.77;;
51686;SDS011;37774;52.192;4.584;2023-03-21T01:58:44;50.80;;;15.40;;
51686;SDS011;37774;52.192;4.584;2023-03-21T02:01:12;43.20;;;15.55;;
51686;SDS011;37774;52.192;4.584;2023-03-21T02:03:40;49.63;;;15.35;;
51686;SDS011;37774;52.192;4.584;2023-03-21T02:06:16;31.02;;;15.27;;
51686;SDS011;37774;52.192;4.584;2023-03-21T02:08:50;39.55;;;14.55;;
51686;SDS011;37774;52.192;4.584;2023-03-21T02:11:18;34.38;;;14.68;;
51686;SDS011;37774;52.192;4.584;2023-03-21T02:13:48;42.47;;;16.20;;
51686;SDS011;37774;52.192;4.584;2023-03-21T02:16:16;36.42;;;14.38;;
51686;SDS011;37774;52.192;4.584;2023-03-21T02:18:53;38.78;;;15.10;;
51686;SDS011;37774;52.192;4.584;2023-03-21T02:21:35;39.00;;;14.25;;
51686;SDS011;37774;52.192;4.584;2023-03-21T02:27:32;30.38;;;14.05;;
51686;SDS011;37774;52.192;4.584;2023-03-21T02:33:15;34.80;;;13.52;;
51686;SDS011;37774;52.192;4.584;2023-03-21T02:36:09;39.40;;;13.77;;
51686;SDS011;37774;52.192;4.584;2023-03-21T02:38:44;36.10;;;13.20;;
51686;SDS011;37774;52.192;4.584;2023-03-21T02:41:17;34.00;;;13.38;;
51686;SDS011;37774;52.192;4.584;2023-03-21T02:43:49;28.80;;;14.80;;
51686;SDS011;37774;52.192;4.584;2023-03-21T02:46:21;36.13;;;13.27;;
51686;SDS011;37774;52.192;4.584;2023-03-21T02:48:55;38.03;;;14.48;;
51686;SDS011;37774;52.192;4.584;2023-03-21T02:51:29;28.42;;;12.38;;
51686;SDS011;37774;52.192;4.584;2023-03-21T02:54:00;39.47;;;12.05;;
51686;SDS011;37774;52.192;4.584;2023-03-21T02:56:31;31.40;;;12.80;;
51686;SDS011;37774;52.192;4.584;2023-03-21T02:58:58;26.23;;;12.68;;
51686;SDS011;37774;52.192;4.584;2023-03-21T03:01:26;32.15;;;13.48;;
51686;SDS011;37774;52.192;4.584;2023-03-21T03:03:53;30.05;;;12.82;;
51686;SDS011;37774;52.192;4.584;2023-03-21T03:06:21;23.60;;;11.45;;
51686;SDS011;37774;52.192;4.584;2023-03-21T03:08:57;32.42;;;12.63;;
51686;SDS011;37774;52.192;4.584;2023-03-21T03:11:38;31.58;;;12.20;;
51686;SDS011;37774;52.192;4.584;2023-03-21T03:14:10;29.02;;;12.35;;
51686;SDS011;37774;52.192;4.584;2023-03-21T03:16:49;30.17;;;12.23;;
51686;SDS011;37774;52.192;4.584;2023-03-21T03:19:28;29.48;;;12.68;;
51686;SDS011;37774;52.192;4.584;2023-03-21T03:21:58;37.63;;;12.23;;
51686;SDS011;37774;52.192;4.584;2023-03-21T03:24:35;29.38;;;14.00;;
51686;SDS011;37774;52.192;4.584;2023-03-21T03:27:08;38.53;;;14.10;;
51686;SDS011;37774;52.192;4.584;2023-03-21T03:29:40;38.65;;;13.02;;
51686;SDS011;37774;52.192;4.584;2023-03-21T03:32:11;32.75;;;12.82;;
51686;SDS011;37774;52.192;4.584;2023-03-21T03:34:43;34.05;;;12.05;;
51686;SDS011;37774;52.192;4.584;2023-03-21T03:37:15;31.60;;;12.52;;
51686;SDS011;37774;52.192;4.584;2023-03-21T03:39:49;31.77;;;11.75;;
51686;SDS011;37774;52.192;4.584;2023-03-21T03:42:23;28.67;;;10.38;;
51686;SDS011;37774;52.192;4.584;2023-03-21T03:44:55;28.08;;;10.57;;
51686;SDS011;37774;52.192;4.584;2023-03-21T03:47:23;22.20;;;9.27;;
51686;SDS011;37774;52.192;4.584;2023-03-21T03:49:56;27.50;;;10.38;;
51686;SDS011;37774;52.192;4.584;2023-03-21T03:52:30;36.70;;;10.15;;
51686;SDS011;37774;52.192;4.584;2023-03-21T03:55:01;21.80;;;9.25;;
51686;SDS011;37774;52.192;4.584;2023-03-21T03:57:28;25.55;;;9.57;;
51686;SDS011;37774;52.192;4.584;2023-03-21T03:59:55;26.60;;;8.75;;
51686;SDS011;37774;52.192;4.584;2023-03-21T04:02:23;35.05;;;8.82;;
51686;SDS011;37774;52.192;4.584;2023-03-21T04:04:50;27.65;;;8.63;;
51686;SDS011;37774;52.192;4.584;2023-03-21T04:07:17;22.30;;;8.73;;
51686;SDS011;37774;52.192;4.584;2023-03-21T04:09:45;28.90;;;9.93;;
51686;SDS011;37774;52.192;4.584;2023-03-21T04:12:13;28.48;;;8.75;;
51686;SDS011;37774;52.192;4.584;2023-03-21T04:14:40;19.98;;;8.45;;
51686;SDS011;37774;52.192;4.584;2023-03-21T04:17:07;42.08;;;9.45;;
51686;SDS011;37774;52.192;4.584;2023-03-21T04:19:35;22.83;;;8.43;;
51686;SDS011;37774;52.192;4.584;2023-03-21T04:22:02;18.00;;;8.75;;
51686;SDS011;37774;52.192;4.584;2023-03-21T04:24:28;25.85;;;8.98;;
51686;SDS011;37774;52.192;4.584;2023-03-21T04:26:58;22.73;;;8.68;;
51686;SDS011;37774;52.192;4.584;2023-03-21T04:29:27;24.20;;;9.50;;
51686;SDS011;37774;52.192;4.584;2023-03-21T04:31:54;35.17;;;10.95;;
51686;SDS011;37774;52.192;4.584;2023-03-21T04:34:20;45.53;;;13.27;;
51686;SDS011;37774;52.192;4.584;2023-03-21T04:36:48;40.22;;;12.88;;
51686;SDS011;37774;52.192;4.584;2023-03-21T04:39:15;38.97;;;13.75;;
51686;SDS011;37774;52.192;4.584;2023-03-21T04:41:43;32.47;;;12.82;;
51686;SDS011;37774;52.192;4.584;2023-03-21T04:44:11;51.45;;;15.63;;
51686;SDS011;37774;52.192;4.584;2023-03-21T04:46:41;40.08;;;15.30;;
51686;SDS011;37774;52.192;4.584;2023-03-21T04:49:08;31.80;;;12.93;;
51686;SDS011;37774;52.192;4.584;2023-03-21T04:51:35;31.20;;;13.63;;
51686;SDS011;37774;52.192;4.584;2023-03-21T04:54:03;34.00;;;14.07;;
51686;SDS011;37774;52.192;4.584;2023-03-21T04:56:29;42.33;;;12.85;;
51686;SDS011;37774;52.192;4.584;2023-03-21T04:58:58;37.92;;;13.95;;
51686;SDS011;37774;52.192;4.584;2023-03-21T05:01:26;35.33;;;13.60;;
51686;SDS011;37774;52.192;4.584;2023-03-21T05:03:58;30.45;;;12.25;;
51686;SDS011;37774;52.192;4.584;2023-03-21T05:06:26;34.45;;;12.52;;
51686;SDS011;37774;52.192;4.584;2023-03-21T05:08:53;37.65;;;12.18;;
51686;SDS011;37774;52.192;4.584;2023-03-21T05:11:24;33.15;;;11.10;;
51686;SDS011;37774;52.192;4.584;2023-03-21T05:13:51;43.08;;;13.07;;
51686;SDS011;37774;52.192;4.584;2023-03-21T05:16:18;34.78;;;12.73;;
51686;SDS011;37774;52.192;4.584;2023-03-21T05:18:45;34.17;;;12.68;;
51686;SDS011;37774;52.192;4.584;2023-03-21T05:21:16;30.70;;;13.18;;
51686;SDS011;37774;52.192;4.584;2023-03-21T05:23:43;39.40;;;12.27;;
51686;SDS011;37774;52.192;4.584;2023-03-21T05:26:10;35.75;;;13.20;;
51686;SDS011;37774;52.192;4.584;2023-03-21T05:28:36;32.15;;;12.27;;
51686;SDS011;37774;52.192;4.584;2023-03-21T05:31:04;31.38;;;12.20;;
51686;SDS011;37774;52.192;4.584;2023-03-21T05:33:31;35.80;;;13.10;;
51686;SDS011;37774;52.192;4.584;2023-03-21T05:35:58;45.40;;;14.00;;
51686;SDS011;37774;52.192;4.584;2023-03-21T05:38:26;37.53;;;14.02;;
51686;SDS011;37774;52.192;4.584;2023-03-21T05:40:53;40.33;;;14.00;;
51686;SDS011;37774;52.192;4.584;2023-03-21T05:43:19;36.03;;;13.00;;
51686;SDS011;37774;52.192;4.584;2023-03-21T05:45:46;38.38;;;14.13;;
51686;SDS011;37774;52.192;4.584;2023-03-21T05:48:13;35.63;;;13.82;;
51686;SDS011;37774;52.192;4.584;2023-03-21T05:50:40;32.92;;;13.15;;
51686;SDS011;37774;52.192;4.584;2023-03-21T05:53:07;60.22;;;13.68;;
51686;SDS011;37774;52.192;4.584;2023-03-21T05:55:36;37.70;;;14.63;;
51686;SDS011;37774;52.192;4.584;2023-03-21T05:58:03;31.75;;;11.85;;
51686;SDS011;37774;52.192;4.584;2023-03-21T06:00:30;37.53;;;14.65;;
51686;SDS011;37774;52.192;4.584;2023-03-21T06:02:56;38.22;;;13.38;;
51686;SDS011;37774;52.192;4.584;2023-03-21T06:05:23;32.40;;;13.25;;
51686;SDS011;37774;52.192;4.584;2023-03-21T06:07:50;44.08;;;14.60;;
51686;SDS011;37774;52.192;4.584;2023-03-21T06:10:17;46.33;;;14.52;;
51686;SDS011;37774;52.192;4.584;2023-03-21T06:12:45;51.22;;;13.60;;
51686;SDS011;37774;52.192;4.584;2023-03-21T06:15:12;30.48;;;13.88;;
51686;SDS011;37774;52.192;4.584;2023-03-21T06:17:39;47.72;;;15.40;;
51686;SDS011;37774;52.192;4.584;2023-03-21T06:20:06;41.28;;;15.15;;
51686;SDS011;37774;52.192;4.584;2023-03-21T06:22:34;44.80;;;15.25;;
51686;SDS011;37774;52.192;4.584;2023-03-21T06:25:01;38.55;;;15.27;;
51686;SDS011;37774;52.192;4.584;2023-03-21T06:27:28;52.05;;;15.60;;
51686;SDS011;37774;52.192;4.584;2023-03-21T06:29:56;51.50;;;16.92;;
51686;SDS011;37774;52.192;4.584;2023-03-21T06:32:23;46.65;;;16.35;;
51686;SDS011;37774;52.192;4.584;2023-03-21T06:34:50;49.25;;;16.45;;
51686;SDS011;37774;52.192;4.584;2023-03-21T06:37:17;45.05;;;18.20;;
51686;SDS011;37774;52.192;4.584;2023-03-21T06:39:44;50.78;;;17.10;;
51686;SDS011;37774;52.192;4.584;2023-03-21T06:42:11;46.47;;;15.57;;
51686;SDS011;37774;52.192;4.584;2023-03-21T06:44:38;49.45;;;16.85;;
51686;SDS011;37774;52.192;4.584;2023-03-21T06:47:06;36.63;;;15.07;;
51686;SDS011;37774;52.192;4.584;2023-03-21T06:49:33;40.03;;;14.55;;
51686;SDS011;37774;52.192;4.584;2023-03-21T06:52:00;39.97;;;15.82;;
51686;SDS011;37774;52.192;4.584;2023-03-21T06:54:27;49.38;;;15.02;;
51686;SDS011;37774;52.192;4.584;2023-03-21T06:56:55;36.95;;;15.05;;
51686;SDS011;37774;52.192;4.584;2023-03-21T06:59:21;32.90;;;13.15;;
51686;SDS011;37774;52.192;4.584;2023-03-21T07:01:48;38.25;;;15.63;;
51686;SDS011;37774;52.192;4.584;2023-03-21T07:04:16;44.03;;;14.88;;
51686;SDS011;37774;52.192;4.584;2023-03-21T07:06:43;51.05;;;14.32;;
51686;SDS011;37774;52.192;4.584;2023-03-21T07:09:10;30.65;;;12.77;;
51686;SDS011;37774;52.192;4.584;2023-03-21T07:11:37;30.17;;;11.55;;
51686;SDS011;37774;52.192;4.584;2023-03-21T07:14:03;36.13;;;12.25;;
51686;SDS011;37774;52.192;4.584;2023-03-21T07:16:30;28.60;;;10.88;;
51686;SDS011;37774;52.192;4.584;2023-03-21T07:18:57;32.70;;;10.82;;
51686;SDS011;37774;52.192;4.584;2023-03-21T07:21:25;25.90;;;11.23;;
51686;SDS011;37774;52.192;4.584;2023-03-21T07:23:52;21.77;;;9.73;;
51686;SDS011;37774;52.192;4.584;2023-03-21T07:26:19;43.28;;;10.30;;
51686;SDS011;37774;52.192;4.584;2023-03-21T07:28:46;36.47;;;11.52;;
51686;SDS011;37774;52.192;4.584;2023-03-21T07:31:14;31.10;;;10.95;;
51686;SDS011;37774;52.192;4.584;2023-03-21T07:33:42;30.58;;;10.38;;
51686;SDS011;37774;52.192;4.584;2023-03-21T07:36:09;36.90;;;10.57;;
51686;SDS011;37774;52.192;4.584;2023-03-21T07:38:39;31.25;;;10.75;;
51686;SDS011;37774;52.192;4.584;2023-03-21T07:41:06;28.13;;;10.63;;
51686;SDS011;37774;52.192;4.584;2023-03-21T07:43:33;32.75;;;9.23;;
51686;SDS011;37774;52.192;4.584;2023-03-21T07:46:00;35.65;;;10.98;;
51686;SDS011;37774;52.192;4.584;2023-03-21T07:48:27;30.40;;;11.88;;
51686;SDS011;37774;52.192;4.584;2023-03-21T07:50:54;31.50;;;10.65;;
51686;SDS011;37774;52.192;4.584;2023-03-21T07:53:21;23.20;;;11.00;;
51686;SDS011;37774;52.192;4.584;2023-03-21T07:55:50;27.98;;;10.30;;
51686;SDS011;37774;52.192;4.584;2023-03-21T07:58:16;27.08;;;10.35;;
51686;SDS011;37774;52.192;4.584;2023-03-21T08:00:43;24.90;;;10.32;;
51686;SDS011;37774;52.192;4.584;2023-03-21T08:03:10;31.63;;;11.32;;
51686;SDS011;37774;52.192;4.584;2023-03-21T08:05:37;30.02;;;11.02;;
51686;SDS011;37774;52.192;4.584;2023-03-21T08:08:05;30.15;;;10.52;;
51686;SDS011;37774;52.192;4.584;2023-03-21T08:10:32;32.35;;;11.02;;
51686;SDS011;37774;52.192;4.584;2023-03-21T08:13:01;26.38;;;10.18;;
51686;SDS011;37774;52.192;4.584;2023-03-21T08:15:29;22.95;;;10.02;;
51686;SDS011;37774;52.192;4.584;2023-03-21T08:17:57;31.88;;;9.40;;
51686;SDS011;37774;52.192;4.584;2023-03-21T08:20:24;28.92;;;9.95;;
51686;SDS011;37774;52.192;4.584;2023-03-21T08:22:51;30.02;;;9.18;;
51686;SDS011;37774;52.192;4.584;2023-03-21T08:25:19;25.35;;;8.95;;
51686;SDS011;37774;52.192;4.584;2023-03-21T08:27:48;35.10;;;9.32;;
51686;SDS011;37774;52.192;4.584;2023-03-21T08:30:18;32.75;;;9.45;;
51686;SDS011;37774;52.192;4.584;2023-03-21T08:32:46;37.13;;;10.70;;
51686;SDS011;37774;52.192;4.584;2023-03-21T08:35:14;31.95;;;9.18;;
51686;SDS011;37774;52.192;4.584;2023-03-21T08:37:43;24.63;;;9.98;;
51686;SDS011;37774;52.192;4.584;2023-03-21T08:40:11;29.88;;;9.45;;
51686;SDS011;37774;52.192;4.584;2023-03-21T08:42:40;31.00;;;10.35;;
51686;SDS011;37774;52.192;4.584;2023-03-21T08:45:08;22.75;;;9.18;;
51686;SDS011;37774;52.192;4.584;2023-03-21T08:47:37;22.42;;;7.72;;
51686;SDS011;37774;52.192;4.584;2023-03-21T08:50:06;26.52;;;8.68;;
51686;SDS011;37774;52.192;4.584;2023-03-21T08:52:34;29.77;;;8.38;;
51686;SDS011;37774;52.192;4.584;2023-03-21T08:55:01;29.80;;;9.20;;
51686;SDS011;37774;52.192;4.584;2023-03-21T08:57:28;19.85;;;8.27;;
51686;SDS011;37774;52.192;4.584;2023-03-21T08:59:55;26.63;;;8.70;;
51686;SDS011;37774;52.192;4.584;2023-03-21T09:02:22;26.98;;;8.38;;
51686;SDS011;37774;52.192;4.584;2023-03-21T09:04:50;20.38;;;8.07;;
51686;SDS011;37774;52.192;4.584;2023-03-21T09:07:19;22.83;;;8.13;;
51686;SDS011;37774;52.192;4.584;2023-03-21T09:09:46;18.38;;;7.38;;
51686;SDS011;37774;52.192;4.584;2023-03-21T09:12:17;21.25;;;7.68;;
51686;SDS011;37774;52.192;4.584;2023-03-21T09:14:44;23.75;;;7.57;;
51686;SDS011;37774;52.192;4.584;2023-03-21T09:17:11;18.80;;;6.13;;
51686;SDS011;37774;52.192;4.584;2023-03-21T09:19:38;19.63;;;6.63;;
51686;SDS011;37774;52.192;4.584;2023-03-21T09:22:07;14.80;;;6.28;;
51686;SDS011;37774;52.192;4.584;2023-03-21T09:24:38;35.70;;;6.60;;
51686;SDS011;37774;52.192;4.584;2023-03-21T09:27:05;16.92;;;7.78;;
51686;SDS011;37774;52.192;4.584;2023-03-21T09:29:32;26.45;;;7.07;;
51686;SDS011;37774;52.192;4.584;2023-03-21T09:31:59;22.65;;;7.65;;
51686;SDS011;37774;52.192;4.584;2023-03-21T09:34:28;23.88;;;7.53;;
51686;SDS011;37774;52.192;4.584;2023-03-21T09:36:56;26.48;;;7.28;;
51686;SDS011;37774;52.192;4.584;2023-03-21T09:39:25;18.95;;;7.60;;
51686;SDS011;37774;52.192;4.584;2023-03-21T09:41:56;20.60;;;8.25;;
51686;SDS011;37774;52.192;4.584;2023-03-21T09:44:35;16.33;;;6.78;;
51686;SDS011;37774;52.192;4.584;2023-03-21T09:47:11;20.05;;;7.20;;
51686;SDS011;37774;52.192;4.584;2023-03-21T09:49:46;27.10;;;7.43;;
51686;SDS011;37774;52.192;4.584;2023-03-21T09:52:18;17.45;;;7.28;;
51686;SDS011;37774;52.192;4.584;2023-03-21T09:54:51;24.63;;;6.97;;
51686;SDS011;37774;52.192;4.584;2023-03-21T09:57:23;17.55;;;7.47;;
51686;SDS011;37774;52.192;4.584;2023-03-21T09:59:58;14.55;;;8.10;;
51686;SDS011;37774;52.192;4.584;2023-03-21T10:02:36;19.52;;;7.60;;
51686;SDS011;37774;52.192;4.584;2023-03-21T10:05:10;22.35;;;9.32;;
51686;SDS011;37774;52.192;4.584;2023-03-21T10:07:43;36.22;;;9.02;;
51686;SDS011;37774;52.192;4.584;2023-03-21T10:10:18;22.05;;;9.45;;
51686;SDS011;37774;52.192;4.584;2023-03-21T10:12:47;26.70;;;9.00;;
51686;SDS011;37774;52.192;4.584;2023-03-21T10:15:18;21.63;;;8.98;;
51686;SDS011;37774;52.192;4.584;2023-03-21T10:17:48;25.65;;;10.10;;
51686;SDS011;37774;52.192;4.584;2023-03-21T10:20:24;31.75;;;9.63;;
51686;SDS011;37774;52.192;4.584;2023-03-21T10:22:52;19.55;;;9.07;;
51686;SDS011;37774;52.192;4.584;2023-03-21T10:25:23;22.70;;;8.93;;
51686;SDS011;37774;52.192;4.584;2023-03-21T10:27:55;20.90;;;8.35;;
51686;SDS011;37774;52.192;4.584;2023-03-21T10:30:25;31.05;;;8.80;;
51686;SDS011;37774;52.192;4.584;2023-03-21T10:32:58;18.42;;;7.78;;
51686;SDS011;37774;52.192;4.584;2023-03-21T10:35:29;22.17;;;9.00;;
51686;SDS011;37774;52.192;4.584;2023-03-21T10:38:01;23.75;;;8.88;;
51686;SDS011;37774;52.192;4.584;2023-03-21T10:40:30;14.75;;;7.40;;
51686;SDS011;37774;52.192;4.584;2023-03-21T10:43:14;17.73;;;7.95;;
51686;SDS011;37774;52.192;4.584;2023-03-21T10:45:43;18.30;;;7.15;;
51686;SDS011;37774;52.192;4.584;2023-03-21T10:48:11;25.48;;;6.47;;
51686;SDS011;37774;52.192;4.584;2023-03-21T10:50:39;20.55;;;6.28;;
51686;SDS011;37774;52.192;4.584;2023-03-21T10:53:10;20.33;;;6.85;;
51686;SDS011;37774;52.192;4.584;2023-03-21T10:55:44;21.35;;;8.77;;
51686;SDS011;37774;52.192;4.584;2023-03-21T10:58:14;17.25;;;6.88;;
51686;SDS011;37774;52.192;4.584;2023-03-21T11:00:51;30.38;;;7.95;;
51686;SDS011;37774;52.192;4.584;2023-03-21T11:03:23;18.77;;;6.68;;
51686;SDS011;37774;52.192;4.584;2023-03-21T11:05:58;19.30;;;7.70;;
51686;SDS011;37774;52.192;4.584;2023-03-21T11:08:28;15.98;;;7.60;;
51686;SDS011;37774;52.192;4.584;2023-03-21T11:11:00;28.88;;;7.78;;
51686;SDS011;37774;52.192;4.584;2023-03-21T11:13:32;16.38;;;7.40;;
51686;SDS011;37774;52.192;4.584;2023-03-21T11:16:04;15.00;;;7.63;;
51686;SDS011;37774;52.192;4.584;2023-03-21T11:18:33;17.50;;;7.38;;
51686;SDS011;37774;52.192;4.584;2023-03-21T11:21:06;21.25;;;7.85;;
51686;SDS011;37774;52.192;4.584;2023-03-21T11:23:37;28.00;;;8.48;;
51686;SDS011;37774;52.192;4.584;2023-03-21T11:26:10;24.10;;;7.72;;
51686;SDS011;37774;52.192;4.584;2023-03-21T11:28:42;24.90;;;7.45;;
51686;SDS011;37774;52.192;4.584;2023-03-21T11:31:11;20.27;;;8.50;;
51686;SDS011;37774;52.192;4.584;2023-03-21T11:33:39;17.42;;;8.20;;
51686;SDS011;37774;52.192;4.584;2023-03-21T11:36:23;22.88;;;7.35;;
51686;SDS011;37774;52.192;4.584;2023-03-21T11:38:56;11.35;;;6.63;;
51686;SDS011;37774;52.192;4.584;2023-03-21T11:41:29;18.83;;;7.78;;
51686;SDS011;37774;52.192;4.584;2023-03-21T11:43:57;23.85;;;9.15;;
51686;SDS011;37774;52.192;4.584;2023-03-21T11:46:26;20.88;;;7.70;;
51686;SDS011;37774;52.192;4.584;2023-03-21T11:48:54;16.60;;;8.20;;
51686;SDS011;37774;52.192;4.584;2023-03-21T11:51:25;18.95;;;7.95;;
51686;SDS011;37774;52.192;4.584;2023-03-21T11:54:03;22.20;;;8.65;;
51686;SDS011;37774;52.192;4.584;2023-03-21T11:56:39;16.58;;;7.88;;
51686;SDS011;37774;52.192;4.584;2023-03-21T11:59:12;14.82;;;6.80;;
51686;SDS011;37774;52.192;4.584;2023-03-21T12:01:54;14.70;;;7.03;;
51686;SDS011;37774;52.192;4.584;2023-03-21T12:04:34;19.83;;;7.00;;
51686;SDS011;37774;52.192;4.584;2023-03-21T12:07:08;18.08;;;6.90;;
51686;SDS011;37774;52.192;4.584;2023-03-21T12:09:48;15.40;;;7.00;;
51686;SDS011;37774;52.192;4.584;2023-03-21T12:12:25;21.63;;;6.53;;
51686;SDS011;37774;52.192;4.584;2023-03-21T12:15:00;12.48;;;5.20;;
51686;SDS011;37774;52.192;4.584;2023-03-21T12:17:34;19.88;;;6.10;;
51686;SDS011;37774;52.192;4.584;2023-03-21T12:20:13;16.02;;;6.30;;
51686;SDS011;37774;52.192;4.584;2023-03-21T12:22:51;14.00;;;5.57;;
51686;SDS011;37774;52.192;4.584;2023-03-21T12:25:30;14.63;;;5.38;;
51686;SDS011;37774;52.192;4.584;2023-03-21T12:28:04;15.30;;;4.80;;
51686;SDS011;37774;52.192;4.584;2023-03-21T12:30:44;13.00;;;5.45;;
51686;SDS011;37774;52.192;4.584;2023-03-21T12:33:24;9.13;;;4.70;;
51686;SDS011;37774;52.192;4.584;2023-03-21T12:39:03;21.67;;;4.85;;
51686;SDS011;37774;52.192;4.584;2023-03-21T12:41:40;15.45;;;5.88;;
51686;SDS011;37774;52.192;4.584;2023-03-21T12:44:12;11.18;;;4.75;;
51686;SDS011;37774;52.192;4.584;2023-03-21T12:46:42;14.23;;;5.13;;
51686;SDS011;37774;52.192;4.584;2023-03-21T12:49:12;15.75;;;5.47;;
51686;SDS011;37774;52.192;4.584;2023-03-21T12:51:45;18.80;;;5.40;;
51686;SDS011;37774;52.192;4.584;2023-03-21T12:54:16;11.15;;;4.28;;
51686;SDS011;37774;52.192;4.584;2023-03-21T12:56:51;12.25;;;4.72;;
51686;SDS011;37774;52.192;4.584;2023-03-21T12:59:26;9.38;;;4.57;;
51686;SDS011;37774;52.192;4.584;2023-03-21T13:01:59;12.40;;;5.03;;
51686;SDS011;37774;52.192;4.584;2023-03-21T13:04:32;17.10;;;4.82;;
51686;SDS011;37774;52.192;4.584;2023-03-21T13:07:09;15.63;;;4.65;;
51686;SDS011;37774;52.192;4.584;2023-03-21T13:09:40;7.20;;;3.40;;
51686;SDS011;37774;52.192;4.584;2023-03-21T13:12:12;15.52;;;4.00;;
51686;SDS011;37774;52.192;4.584;2023-03-21T13:14:51;10.57;;;3.63;;
51686;SDS011;37774;52.192;4.584;2023-03-21T13:17:29;8.00;;;3.75;;
51686;SDS011;37774;52.192;4.584;2023-03-21T13:20:03;14.10;;;3.58;;
51686;SDS011;37774;52.192;4.584;2023-03-21T13:22:38;6.57;;;3.72;;
51686;SDS011;37774;52.192;4.584;2023-03-21T13:25:05;11.75;;;3.75;;
51686;SDS011;37774;52.192;4.584;2023-03-21T13:27:46;11.10;;;3.45;;
51686;SDS011;37774;52.192;4.584;2023-03-21T13:30:19;8.20;;;4.05;;
51686;SDS011;37774;52.192;4.584;2023-03-21T13:32:50;7.75;;;3.75;;
51686;SDS011;37774;52.192;4.584;2023-03-21T13:35:22;8.40;;;3.88;;
51686;SDS011;37774;52.192;4.584;2023-03-21T13:37:52;7.20;;;3.88;;
51686;SDS011;37774;52.192;4.584;2023-03-21T13:40:25;10.60;;;4.72;;
51686;SDS011;37774;52.192;4.584;2023-03-21T13:42:54;14.68;;;4.05;;
51686;SDS011;37774;52.192;4.584;2023-03-21T13:45:28;6.70;;;3.95;;
51686;SDS011;37774;52.192;4.584;2023-03-21T13:47:58;8.52;;;3.65;;
51686;SDS011;37774;52.192;4.584;2023-03-21T13:50:39;16.95;;;4.57;;
51686;SDS011;37774;52.192;4.584;2023-03-21T13:53:20;10.15;;;5.25;;
51686;SDS011;37774;52.192;4.584;2023-03-21T13:55:59;15.20;;;4.65;;
51686;SDS011;37774;52.192;4.584;2023-03-21T13:58:34;9.70;;;4.57;;
51686;SDS011;37774;52.192;4.584;2023-03-21T14:01:19;16.33;;;4.82;;
51686;SDS011;37774;52.192;4.584;2023-03-21T14:03:55;10.15;;;4.13;;
51686;SDS011;37774;52.192;4.584;2023-03-21T14:06:25;14.38;;;4.93;;
51686;SDS011;37774;52.192;4.584;2023-03-21T14:08:59;8.25;;;4.68;;
51686;SDS011;37774;52.192;4.584;2023-03-21T14:11:28;9.77;;;4.30;;
51686;SDS011;37774;52.192;4.584;2023-03-21T14:13:58;9.60;;;4.50;;
51686;SDS011;37774;52.192;4.584;2023-03-21T14:16:27;8.63;;;3.40;;
51686;SDS011;37774;52.192;4.584;2023-03-21T14:18:58;11.63;;;4.05;;
51686;SDS011;37774;52.192;4.584;2023-03-21T14:21:27;8.52;;;3.60;;
51686;SDS011;37774;52.192;4.584;2023-03-21T14:23:56;22.25;;;4.43;;
51686;SDS011;37774;52.192;4.584;2023-03-21T14:26:25;6.03;;;3.60;;
51686;SDS011;37774;52.192;4.584;2023-03-21T14:28:54;10.13;;;4.07;;
51686;SDS011;37774;52.192;4.584;2023-03-21T14:31:21;18.25;;;4.55;;
51686;SDS011;37774;52.192;4.584;2023-03-21T14:33:50;13.20;;;4.50;;
51686;SDS011;37774;52.192;4.584;2023-03-21T14:36:22;10.35;;;4.70;;
51686;SDS011;37774;52.192;4.584;2023-03-21T14:38:55;9.27;;;4.40;;
51686;SDS011;37774;52.192;4.584;2023-03-21T14:41:24;7.30;;;3.80;;
51686;SDS011;37774;52.192;4.584;2023-03-21T14:46:50;6.78;;;3.35;;
51686;SDS011;37774;52.192;4.584;2023-03-21T14:49:20;8.98;;;3.55;;
51686;SDS011;37774;52.192;4.584;2023-03-21T14:51:55;7.53;;;4.05;;
51686;SDS011;37774;52.192;4.584;2023-03-21T14:54:25;5.65;;;3.03;;
51686;SDS011;37774;52.192;4.584;2023-03-21T14:56:55;10.80;;;3.58;;
51686;SDS011;37774;52.192;4.584;2023-03-21T14:59:25;10.35;;;4.13;;
51686;SDS011;37774;52.192;4.584;2023-03-21T15:01:56;9.13;;;2.50;;